sensor_id;sensor_type;location;lat;lon;timestamp;P1;durP1;ratioP1;P2;durP2;ratioP2
69542;SDS011;56762;49.494;11.768;2022-07-23T00:01:05;8.73;;;6.20;;
69542;SDS011;56762;49.494;11.768;2022-07-23T00:03:33;8.43;;;6.70;;
69542;SDS011;56762;49.494;11.768;2022-07-23T00:06:01;9.05;;;6.43;;
69542;SDS011;56762;49.494;11.768;2022-07-23T00:08:36;7.57;;;5.90;;
69542;SDS011;56762;49.494;11.768;2022-07-23T00:11:04;7.67;;;5.90;;
69542;SDS011;56762;49.494;11.768;2022-07-23T00:13:32;9.20;;;6.60;;
69542;SDS011;56762;49.494;11.768;2022-07-23T00:16:01;8.18;;;6.60;;
69542;SDS011;56762;49.494;11.768;2022-07-23T00:18:29;10.05;;;6.85;;
69542;SDS011;56762;49.494;11.768;2022-07-23T00:20:57;8.18;;;6.07;;
69542;SDS011;56762;49.494;11.768;2022-07-23T00:23:25;7.63;;;5.73;;
69542;SDS011;56762;49.494;11.768;2022-07-23T00:25:55;8.35;;;5.80;;
69542;SDS011;56762;49.494;11.768;2022-07-23T00:28:23;7.95;;;5.80;;
69542;SDS011;56762;49.494;11.768;2022-07-23T00:30:51;8.35;;;5.95;;
69542;SDS011;56762;49.494;11.768;2022-07-23T00:33:18;8.73;;;6.60;;
69542;SDS011;56762;49.494;11.768;2022-07-23T00:35:46;7.90;;;6.27;;
69542;SDS011;56762;49.494;11.768;2022-07-23T00:38:14;8.98;;;5.97;;
69542;SDS011;56762;49.494;11.768;2022-07-23T00:40:42;8.75;;;5.47;;
69542;SDS011;56762;49.494;11.768;2022-07-23T00:43:11;8.80;;;5.38;;
69542;SDS011;56762;49.494;11.768;2022-07-23T00:45:39;10.27;;;6.38;;
69542;SDS011;56762;49.494;11.768;2022-07-23T00:48:07;8.60;;;6.00;;
69542;SDS011;56762;49.494;11.768;2022-07-23T00:50:35;9.15;;;6.60;;
69542;SDS011;56762;49.494;11.768;2022-07-23T00:53:03;11.27;;;7.03;;
69542;SDS011;56762;49.494;11.768;2022-07-23T00:55:32;9.90;;;6.35;;
69542;SDS011;56762;49.494;11.768;2022-07-23T00:58:01;9.48;;;6.68;;
69542;SDS011;56762;49.494;11.768;2022-07-23T01:00:33;10.57;;;5.77;;
69542;SDS011;56762;49.494;11.768;2022-07-23T01:03:02;8.75;;;5.75;;
69542;SDS011;56762;49.494;11.768;2022-07-23T01:05:30;7.60;;;5.82;;
69542;SDS011;56762;49.494;11.768;2022-07-23T01:07:59;9.95;;;6.75;;
69542;SDS011;56762;49.494;11.768;2022-07-23T01:10:27;9.05;;;6.43;;
69542;SDS011;56762;49.494;11.768;2022-07-23T01:12:58;9.73;;;6.80;;
69542;SDS011;56762;49.494;11.768;2022-07-23T01:15:28;9.38;;;6.90;;
69542;SDS011;56762;49.494;11.768;2022-07-23T01:17:57;8.93;;;6.15;;
69542;SDS011;56762;49.494;11.768;2022-07-23T01:20:25;8.43;;;6.10;;
69542;SDS011;56762;49.494;11.768;2022-07-23T01:22:54;8.25;;;6.40;;
69542;SDS011;56762;49.494;11.768;2022-07-23T01:25:23;8.03;;;6.27;;
69542;SDS011;56762;49.494;11.768;2022-07-23T01:27:51;8.75;;;6.00;;
69542;SDS011;56762;49.494;11.768;2022-07-23T01:30:21;8.70;;;6.05;;
69542;SDS011;56762;49.494;11.768;2022-07-23T01:32:49;9.88;;;6.53;;
69542;SDS011;56762;49.494;11.768;2022-07-23T01:35:17;8.95;;;6.90;;
69542;SDS011;56762;49.494;11.768;2022-07-23T01:37:45;8.50;;;6.53;;
69542;SDS011;56762;49.494;11.768;2022-07-23T01:40:17;9.43;;;6.32;;
69542;SDS011;56762;49.494;11.768;2022-07-23T01:42:48;9.68;;;5.88;;
69542;SDS011;56762;49.494;11.768;2022-07-23T01:45:16;6.97;;;5.18;;
69542;SDS011;56762;49.494;11.768;2022-07-23T01:47:44;8.13;;;5.80;;
69542;SDS011;56762;49.494;11.768;2022-07-23T01:50:12;9.17;;;5.80;;
69542;SDS011;56762;49.494;11.768;2022-07-23T01:52:40;8.20;;;6.10;;
69542;SDS011;56762;49.494;11.768;2022-07-23T01:55:08;10.07;;;6.68;;
69542;SDS011;56762;49.494;11.768;2022-07-23T01:57:45;11.30;;;7.68;;
69542;SDS011;56762;49.494;11.768;2022-07-23T02:00:13;11.82;;;8.10;;
69542;SDS011;56762;49.494;11.768;2022-07-23T02:02:41;11.80;;;8.23;;
69542;SDS011;56762;49.494;11.768;2022-07-23T02:05:09;14.25;;;9.65;;
69542;SDS011;56762;49.494;11.768;2022-07-23T02:07:37;14.15;;;9.77;;
69542;SDS011;56762;49.494;11.768;2022-07-23T02:10:05;13.18;;;9.10;;
69542;SDS011;56762;49.494;11.768;2022-07-23T02:12:34;12.73;;;8.32;;
69542;SDS011;56762;49.494;11.768;2022-07-23T02:15:04;11.60;;;8.33;;
69542;SDS011;56762;49.494;11.768;2022-07-23T02:17:35;10.40;;;7.25;;
69542;SDS011;56762;49.494;11.768;2022-07-23T02:20:04;10.93;;;7.28;;
69542;SDS011;56762;49.494;11.768;2022-07-23T02:22:33;10.02;;;6.93;;
69542;SDS011;56762;49.494;11.768;2022-07-23T02:25:01;12.98;;;8.05;;
69542;SDS011;56762;49.494;11.768;2022-07-23T02:27:29;10.23;;;7.23;;
69542;SDS011;56762;49.494;11.768;2022-07-23T02:29:57;10.07;;;7.50;;
69542;SDS011;56762;49.494;11.768;2022-07-23T02:32:26;10.18;;;7.18;;
69542;SDS011;56762;49.494;11.768;2022-07-23T02:34:54;9.60;;;7.13;;
69542;SDS011;56762;49.494;11.768;2022-07-23T02:37:22;9.57;;;7.10;;
69542;SDS011;56762;49.494;11.768;2022-07-23T02:39:49;10.00;;;5.87;;
69542;SDS011;56762;49.494;11.768;2022-07-23T02:42:17;7.15;;;5.35;;
69542;SDS011;56762;49.494;11.768;2022-07-23T02:44:45;9.00;;;5.85;;
69542;SDS011;56762;49.494;11.768;2022-07-23T02:47:13;7.68;;;5.45;;
69542;SDS011;56762;49.494;11.768;2022-07-23T02:49:42;9.13;;;6.40;;
69542;SDS011;56762;49.494;11.768;2022-07-23T02:52:11;7.60;;;5.83;;
69542;SDS011;56762;49.494;11.768;2022-07-23T02:54:38;8.38;;;5.90;;
69542;SDS011;56762;49.494;11.768;2022-07-23T02:57:06;9.30;;;6.05;;
69542;SDS011;56762;49.494;11.768;2022-07-23T02:59:34;7.88;;;5.47;;
69542;SDS011;56762;49.494;11.768;2022-07-23T03:02:02;8.20;;;5.97;;
69542;SDS011;56762;49.494;11.768;2022-07-23T03:04:30;7.90;;;5.80;;
69542;SDS011;56762;49.494;11.768;2022-07-23T03:06:59;9.20;;;5.68;;
69542;SDS011;56762;49.494;11.768;2022-07-23T03:09:27;8.25;;;5.10;;
69542;SDS011;56762;49.494;11.768;2022-07-23T03:11:57;7.85;;;6.25;;
69542;SDS011;56762;49.494;11.768;2022-07-23T03:14:24;8.80;;;6.28;;
69542;SDS011;56762;49.494;11.768;2022-07-23T03:16:54;7.67;;;6.00;;
69542;SDS011;56762;49.494;11.768;2022-07-23T03:19:23;7.38;;;5.97;;
69542;SDS011;56762;49.494;11.768;2022-07-23T03:21:50;9.05;;;5.50;;
69542;SDS011;56762;49.494;11.768;2022-07-23T03:24:20;8.93;;;5.70;;
69542;SDS011;56762;49.494;11.768;2022-07-23T03:26:49;7.53;;;5.78;;
69542;SDS011;56762;49.494;11.768;2022-07-23T03:29:18;9.23;;;6.80;;
69542;SDS011;56762;49.494;11.768;2022-07-23T03:31:46;9.88;;;6.63;;
69542;SDS011;56762;49.494;11.768;2022-07-23T03:34:14;8.65;;;6.22;;
69542;SDS011;56762;49.494;11.768;2022-07-23T03:36:44;11.00;;;6.90;;
69542;SDS011;56762;49.494;11.768;2022-07-23T03:39:12;10.57;;;7.13;;
69542;SDS011;56762;49.494;11.768;2022-07-23T03:41:42;12.00;;;8.00;;
69542;SDS011;56762;49.494;11.768;2022-07-23T03:44:10;11.45;;;8.45;;
69542;SDS011;56762;49.494;11.768;2022-07-23T03:46:38;13.95;;;9.95;;
69542;SDS011;56762;49.494;11.768;2022-07-23T03:49:06;13.32;;;9.55;;
69542;SDS011;56762;49.494;11.768;2022-07-23T03:51:34;11.82;;;8.40;;
69542;SDS011;56762;49.494;11.768;2022-07-23T03:54:02;12.40;;;8.43;;
69542;SDS011;56762;49.494;11.768;2022-07-23T03:56:30;12.07;;;8.65;;
69542;SDS011;56762;49.494;11.768;2022-07-23T03:58:59;12.85;;;9.18;;
69542;SDS011;56762;49.494;11.768;2022-07-23T04:01:27;13.50;;;9.70;;
69542;SDS011;56762;49.494;11.768;2022-07-23T04:03:55;12.32;;;8.90;;
69542;SDS011;56762;49.494;11.768;2022-07-23T04:06:23;11.67;;;7.77;;
69542;SDS011;56762;49.494;11.768;2022-07-23T04:08:51;11.98;;;8.23;;
69542;SDS011;56762;49.494;11.768;2022-07-23T04:11:19;11.50;;;7.25;;
69542;SDS011;56762;49.494;11.768;2022-07-23T04:13:46;10.55;;;7.40;;
69542;SDS011;56762;49.494;11.768;2022-07-23T04:16:16;9.52;;;7.60;;
69542;SDS011;56762;49.494;11.768;2022-07-23T04:18:44;12.07;;;8.17;;
69542;SDS011;56762;49.494;11.768;2022-07-23T04:21:11;10.38;;;7.70;;
69542;SDS011;56762;49.494;11.768;2022-07-23T04:23:40;10.60;;;6.60;;
69542;SDS011;56762;49.494;11.768;2022-07-23T04:26:09;8.88;;;6.95;;
69542;SDS011;56762;49.494;11.768;2022-07-23T04:28:43;10.82;;;7.15;;
69542;SDS011;56762;49.494;11.768;2022-07-23T04:31:10;10.07;;;7.27;;
69542;SDS011;56762;49.494;11.768;2022-07-23T04:33:40;10.77;;;6.93;;
69542;SDS011;56762;49.494;11.768;2022-07-23T04:36:08;9.40;;;6.60;;
69542;SDS011;56762;49.494;11.768;2022-07-23T04:38:36;8.73;;;6.25;;
69542;SDS011;56762;49.494;11.768;2022-07-23T04:41:04;12.02;;;7.68;;
69542;SDS011;56762;49.494;11.768;2022-07-23T04:43:32;11.10;;;7.30;;
69542;SDS011;56762;49.494;11.768;2022-07-23T04:46:00;10.25;;;7.68;;
69542;SDS011;56762;49.494;11.768;2022-07-23T04:48:34;8.80;;;6.43;;
69542;SDS011;56762;49.494;11.768;2022-07-23T04:51:06;10.98;;;7.20;;
69542;SDS011;56762;49.494;11.768;2022-07-23T04:53:34;12.02;;;7.57;;
69542;SDS011;56762;49.494;11.768;2022-07-23T04:56:01;10.60;;;7.23;;
69542;SDS011;56762;49.494;11.768;2022-07-23T04:58:29;8.98;;;6.90;;
69542;SDS011;56762;49.494;11.768;2022-07-23T05:00:58;9.38;;;7.40;;
69542;SDS011;56762;49.494;11.768;2022-07-23T05:03:26;9.13;;;6.97;;
69542;SDS011;56762;49.494;11.768;2022-07-23T05:05:54;10.38;;;6.65;;
69542;SDS011;56762;49.494;11.768;2022-07-23T05:08:24;9.70;;;7.03;;
69542;SDS011;56762;49.494;11.768;2022-07-23T05:10:52;10.27;;;6.93;;
69542;SDS011;56762;49.494;11.768;2022-07-23T05:13:20;14.30;;;8.32;;
69542;SDS011;56762;49.494;11.768;2022-07-23T05:15:48;9.90;;;6.93;;
69542;SDS011;56762;49.494;11.768;2022-07-23T05:18:15;10.15;;;7.50;;
69542;SDS011;56762;49.494;11.768;2022-07-23T05:20:45;10.43;;;7.53;;
69542;SDS011;56762;49.494;11.768;2022-07-23T05:23:13;10.00;;;7.35;;
69542;SDS011;56762;49.494;11.768;2022-07-23T05:25:42;10.40;;;7.70;;
69542;SDS011;56762;49.494;11.768;2022-07-23T05:28:10;10.35;;;7.20;;
69542;SDS011;56762;49.494;11.768;2022-07-23T05:30:38;10.43;;;6.93;;
69542;SDS011;56762;49.494;11.768;2022-07-23T05:33:06;9.30;;;7.03;;
69542;SDS011;56762;49.494;11.768;2022-07-23T05:35:34;11.60;;;7.20;;
69542;SDS011;56762;49.494;11.768;2022-07-23T05:38:03;10.05;;;7.30;;
69542;SDS011;56762;49.494;11.768;2022-07-23T05:40:31;10.45;;;7.78;;
69542;SDS011;56762;49.494;11.768;2022-07-23T05:43:01;10.43;;;7.03;;
69542;SDS011;56762;49.494;11.768;2022-07-23T05:45:28;9.27;;;7.33;;
69542;SDS011;56762;49.494;11.768;2022-07-23T05:47:56;10.48;;;7.65;;
69542;SDS011;56762;49.494;11.768;2022-07-23T05:50:24;11.73;;;8.68;;
69542;SDS011;56762;49.494;11.768;2022-07-23T05:52:51;14.05;;;8.35;;
69542;SDS011;56762;49.494;11.768;2022-07-23T05:55:19;12.20;;;7.50;;
69542;SDS011;56762;49.494;11.768;2022-07-23T05:57:47;11.20;;;7.47;;
69542;SDS011;56762;49.494;11.768;2022-07-23T06:00:17;10.40;;;7.80;;
69542;SDS011;56762;49.494;11.768;2022-07-23T06:02:44;11.15;;;7.90;;
69542;SDS011;56762;49.494;11.768;2022-07-23T06:05:20;7.53;;;6.15;;
69542;SDS011;56762;49.494;11.768;2022-07-23T06:07:48;7.95;;;6.43;;
69542;SDS011;56762;49.494;11.768;2022-07-23T06:10:16;7.97;;;5.80;;
69542;SDS011;56762;49.494;11.768;2022-07-23T06:12:43;9.77;;;5.65;;
69542;SDS011;56762;49.494;11.768;2022-07-23T06:15:11;8.68;;;5.50;;
69542;SDS011;56762;49.494;11.768;2022-07-23T06:17:40;6.40;;;4.70;;
69542;SDS011;56762;49.494;11.768;2022-07-23T06:20:09;7.68;;;3.75;;
69542;SDS011;56762;49.494;11.768;2022-07-23T06:22:37;5.67;;;3.50;;
69542;SDS011;56762;49.494;11.768;2022-07-23T06:25:06;5.13;;;3.30;;
69542;SDS011;56762;49.494;11.768;2022-07-23T06:27:44;4.88;;;3.55;;
69542;SDS011;56762;49.494;11.768;2022-07-23T06:30:12;4.78;;;3.35;;
69542;SDS011;56762;49.494;11.768;2022-07-23T06:32:45;4.60;;;3.05;;
69542;SDS011;56762;49.494;11.768;2022-07-23T06:35:13;4.47;;;2.80;;
69542;SDS011;56762;49.494;11.768;2022-07-23T06:37:41;5.80;;;3.33;;
69542;SDS011;56762;49.494;11.768;2022-07-23T06:40:11;4.18;;;3.25;;
69542;SDS011;56762;49.494;11.768;2022-07-23T06:42:40;4.40;;;3.00;;
69542;SDS011;56762;49.494;11.768;2022-07-23T06:45:08;4.68;;;2.95;;
69542;SDS011;56762;49.494;11.768;2022-07-23T06:47:36;7.20;;;3.40;;
69542;SDS011;56762;49.494;11.768;2022-07-23T06:50:06;7.47;;;3.40;;
69542;SDS011;56762;49.494;11.768;2022-07-23T06:52:35;6.28;;;3.70;;
69542;SDS011;56762;49.494;11.768;2022-07-23T06:55:08;4.97;;;3.30;;
69542;SDS011;56762;49.494;11.768;2022-07-23T06:57:36;5.38;;;3.92;;
69542;SDS011;56762;49.494;11.768;2022-07-23T07:00:04;4.80;;;3.50;;
69542;SDS011;56762;49.494;11.768;2022-07-23T07:02:33;5.78;;;3.70;;
69542;SDS011;56762;49.494;11.768;2022-07-23T07:05:01;5.50;;;3.85;;
69542;SDS011;56762;49.494;11.768;2022-07-23T07:07:33;6.18;;;3.60;;
69542;SDS011;56762;49.494;11.768;2022-07-23T07:10:01;6.15;;;4.00;;
69542;SDS011;56762;49.494;11.768;2022-07-23T07:12:31;6.67;;;4.53;;
69542;SDS011;56762;49.494;11.768;2022-07-23T07:14:59;7.75;;;5.13;;
69542;SDS011;56762;49.494;11.768;2022-07-23T07:17:27;6.18;;;3.90;;
69542;SDS011;56762;49.494;11.768;2022-07-23T07:19:55;4.97;;;3.60;;
69542;SDS011;56762;49.494;11.768;2022-07-23T07:22:23;5.70;;;3.92;;
69542;SDS011;56762;49.494;11.768;2022-07-23T07:24:52;5.87;;;3.77;;
69542;SDS011;56762;49.494;11.768;2022-07-23T07:27:20;5.78;;;4.00;;
69542;SDS011;56762;49.494;11.768;2022-07-23T07:29:48;5.95;;;4.45;;
69542;SDS011;56762;49.494;11.768;2022-07-23T07:32:16;5.85;;;4.40;;
69542;SDS011;56762;49.494;11.768;2022-07-23T07:35:05;5.63;;;4.40;;
69542;SDS011;56762;49.494;11.768;2022-07-23T07:37:34;5.27;;;4.40;;
69542;SDS011;56762;49.494;11.768;2022-07-23T07:40:04;5.50;;;4.65;;
69542;SDS011;56762;49.494;11.768;2022-07-23T07:42:32;5.13;;;4.07;;
69542;SDS011;56762;49.494;11.768;2022-07-23T07:45:00;6.38;;;4.78;;
69542;SDS011;56762;49.494;11.768;2022-07-23T07:47:28;6.25;;;4.60;;
69542;SDS011;56762;49.494;11.768;2022-07-23T07:50:00;8.20;;;5.00;;
69542;SDS011;56762;49.494;11.768;2022-07-23T07:52:29;7.57;;;4.82;;
69542;SDS011;56762;49.494;11.768;2022-07-23T07:54:57;6.90;;;4.78;;
69542;SDS011;56762;49.494;11.768;2022-07-23T07:57:26;9.70;;;5.20;;
69542;SDS011;56762;49.494;11.768;2022-07-23T07:59:56;7.97;;;5.70;;
69542;SDS011;56762;49.494;11.768;2022-07-23T08:02:38;6.70;;;5.57;;
69542;SDS011;56762;49.494;11.768;2022-07-23T08:05:08;7.60;;;5.18;;
69542;SDS011;56762;49.494;11.768;2022-07-23T08:07:36;6.55;;;5.43;;
69542;SDS011;56762;49.494;11.768;2022-07-23T08:10:06;7.68;;;5.40;;
69542;SDS011;56762;49.494;11.768;2022-07-23T08:12:41;6.90;;;4.85;;
69542;SDS011;56762;49.494;11.768;2022-07-23T08:15:11;7.00;;;5.20;;
69542;SDS011;56762;49.494;11.768;2022-07-23T08:17:40;7.05;;;5.03;;
69542;SDS011;56762;49.494;11.768;2022-07-23T08:20:10;9.57;;;5.43;;
69542;SDS011;56762;49.494;11.768;2022-07-23T08:22:47;7.40;;;5.28;;
69542;SDS011;56762;49.494;11.768;2022-07-23T08:25:19;6.50;;;4.75;;
69542;SDS011;56762;49.494;11.768;2022-07-23T08:27:50;6.00;;;4.80;;
69542;SDS011;56762;49.494;11.768;2022-07-23T08:30:19;6.72;;;4.93;;
69542;SDS011;56762;49.494;11.768;2022-07-23T08:32:49;6.85;;;4.95;;
69542;SDS011;56762;49.494;11.768;2022-07-23T08:35:22;6.50;;;4.45;;
69542;SDS011;56762;49.494;11.768;2022-07-23T08:37:54;7.55;;;4.80;;
69542;SDS011;56762;49.494;11.768;2022-07-23T08:40:22;6.50;;;4.93;;
69542;SDS011;56762;49.494;11.768;2022-07-23T08:42:52;6.75;;;4.57;;
69542;SDS011;56762;49.494;11.768;2022-07-23T08:45:21;8.38;;;5.30;;
69542;SDS011;56762;49.494;11.768;2022-07-23T08:47:53;6.72;;;4.85;;
69542;SDS011;56762;49.494;11.768;2022-07-23T08:50:22;7.55;;;5.10;;
69542;SDS011;56762;49.494;11.768;2022-07-23T08:52:53;7.30;;;5.73;;
69542;SDS011;56762;49.494;11.768;2022-07-23T08:55:23;5.90;;;4.65;;
69542;SDS011;56762;49.494;11.768;2022-07-23T08:57:52;5.35;;;4.85;;
69542;SDS011;56762;49.494;11.768;2022-07-23T09:00:21;7.22;;;5.55;;
69542;SDS011;56762;49.494;11.768;2022-07-23T09:02:50;7.03;;;5.35;;
69542;SDS011;56762;49.494;11.768;2022-07-23T09:05:19;7.27;;;5.23;;
69542;SDS011;56762;49.494;11.768;2022-07-23T09:10:48;6.28;;;4.85;;
69542;SDS011;56762;49.494;11.768;2022-07-23T09:13:28;6.25;;;4.43;;
69542;SDS011;56762;49.494;11.768;2022-07-23T09:16:02;9.95;;;4.88;;
69542;SDS011;56762;49.494;11.768;2022-07-23T09:18:34;6.40;;;5.00;;
69542;SDS011;56762;49.494;11.768;2022-07-23T09:21:06;6.68;;;4.85;;
69542;SDS011;56762;49.494;11.768;2022-07-23T09:23:39;8.13;;;5.22;;
69542;SDS011;56762;49.494;11.768;2022-07-23T09:26:18;7.70;;;5.80;;
69542;SDS011;56762;49.494;11.768;2022-07-23T09:28:59;7.60;;;4.70;;
69542;SDS011;56762;49.494;11.768;2022-07-23T09:31:34;6.43;;;4.80;;
69542;SDS011;56762;49.494;11.768;2022-07-23T09:34:11;6.57;;;4.90;;
69542;SDS011;56762;49.494;11.768;2022-07-23T09:36:41;5.97;;;4.80;;
69542;SDS011;56762;49.494;11.768;2022-07-23T09:39:10;6.30;;;4.53;;
69542;SDS011;56762;49.494;11.768;2022-07-23T09:41:40;6.72;;;4.50;;
69542;SDS011;56762;49.494;11.768;2022-07-23T09:44:13;6.70;;;4.60;;
69542;SDS011;56762;49.494;11.768;2022-07-23T09:46:44;6.90;;;4.32;;
69542;SDS011;56762;49.494;11.768;2022-07-23T09:49:17;5.60;;;4.68;;
69542;SDS011;56762;49.494;11.768;2022-07-23T09:51:51;6.88;;;4.43;;
69542;SDS011;56762;49.494;11.768;2022-07-23T09:54:23;5.07;;;4.10;;
69542;SDS011;56762;49.494;11.768;2022-07-23T09:56:54;5.87;;;4.10;;
69542;SDS011;56762;49.494;11.768;2022-07-23T09:59:25;6.55;;;4.43;;
69542;SDS011;56762;49.494;11.768;2022-07-23T10:01:55;6.18;;;4.32;;
69542;SDS011;56762;49.494;11.768;2022-07-23T10:04:26;6.60;;;4.03;;
69542;SDS011;56762;49.494;11.768;2022-07-23T10:06:57;6.90;;;4.50;;
69542;SDS011;56762;49.494;11.768;2022-07-23T10:09:27;5.23;;;4.20;;
69542;SDS011;56762;49.494;11.768;2022-07-23T10:11:57;6.45;;;4.40;;
69542;SDS011;56762;49.494;11.768;2022-07-23T10:14:41;6.55;;;4.03;;
69542;SDS011;56762;49.494;11.768;2022-07-23T10:17:14;6.57;;;4.28;;
69542;SDS011;56762;49.494;11.768;2022-07-23T10:19:43;4.80;;;3.95;;
69542;SDS011;56762;49.494;11.768;2022-07-23T10:22:13;5.43;;;3.90;;
69542;SDS011;56762;49.494;11.768;2022-07-23T10:24:47;5.97;;;3.80;;
69542;SDS011;56762;49.494;11.768;2022-07-23T10:27:29;6.72;;;3.97;;
69542;SDS011;56762;49.494;11.768;2022-07-23T10:30:09;6.63;;;3.88;;
69542;SDS011;56762;49.494;11.768;2022-07-23T10:32:49;5.32;;;3.92;;
69542;SDS011;56762;49.494;11.768;2022-07-23T10:35:29;5.47;;;3.73;;
69542;SDS011;56762;49.494;11.768;2022-07-23T10:38:07;5.13;;;4.05;;
69542;SDS011;56762;49.494;11.768;2022-07-23T10:40:54;6.40;;;4.18;;
69542;SDS011;56762;49.494;11.768;2022-07-23T10:43:25;6.32;;;4.03;;
69542;SDS011;56762;49.494;11.768;2022-07-23T10:46:20;5.85;;;4.00;;
69542;SDS011;56762;49.494;11.768;2022-07-23T10:54:50;5.68;;;4.30;;
69542;SDS011;56762;49.494;11.768;2022-07-23T10:57:20;7.15;;;4.35;;
69542;SDS011;56762;49.494;11.768;2022-07-23T11:02:43;5.90;;;3.80;;
69542;SDS011;56762;49.494;11.768;2022-07-23T11:05:13;5.85;;;4.10;;
69542;SDS011;56762;49.494;11.768;2022-07-23T11:10:46;5.10;;;3.90;;
69542;SDS011;56762;49.494;11.768;2022-07-23T11:13:26;5.53;;;3.97;;
69542;SDS011;56762;49.494;11.768;2022-07-23T11:16:18;5.83;;;3.80;;
69542;SDS011;56762;49.494;11.768;2022-07-23T11:19:03;7.60;;;5.28;;
69542;SDS011;56762;49.494;11.768;2022-07-23T11:21:48;6.38;;;4.40;;
69542;SDS011;56762;49.494;11.768;2022-07-23T11:24:21;7.18;;;4.43;;
69542;SDS011;56762;49.494;11.768;2022-07-23T11:26:59;5.47;;;3.95;;
69542;SDS011;56762;49.494;11.768;2022-07-23T11:29:41;5.30;;;3.73;;
69542;SDS011;56762;49.494;11.768;2022-07-23T11:32:30;6.18;;;3.80;;
69542;SDS011;56762;49.494;11.768;2022-07-23T11:35:20;5.30;;;3.78;;
69542;SDS011;56762;49.494;11.768;2022-07-23T11:37:50;4.90;;;3.60;;
69542;SDS011;56762;49.494;11.768;2022-07-23T11:40:25;5.47;;;3.92;;
69542;SDS011;56762;49.494;11.768;2022-07-23T11:42:58;7.30;;;3.63;;
69542;SDS011;56762;49.494;11.768;2022-07-23T11:45:30;6.00;;;3.63;;
69542;SDS011;56762;49.494;11.768;2022-07-23T11:48:00;5.15;;;3.47;;
69542;SDS011;56762;49.494;11.768;2022-07-23T11:50:31;5.70;;;3.75;;
69542;SDS011;56762;49.494;11.768;2022-07-23T11:52:59;4.55;;;3.30;;
69542;SDS011;56762;49.494;11.768;2022-07-23T11:55:28;5.50;;;3.13;;
69542;SDS011;56762;49.494;11.768;2022-07-23T11:57:56;5.40;;;3.63;;
69542;SDS011;56762;49.494;11.768;2022-07-23T12:00:26;6.82;;;4.30;;
69542;SDS011;56762;49.494;11.768;2022-07-23T12:02:57;5.18;;;3.83;;
69542;SDS011;56762;49.494;11.768;2022-07-23T12:05:28;4.78;;;3.42;;
69542;SDS011;56762;49.494;11.768;2022-07-23T12:07:59;6.27;;;3.70;;
69542;SDS011;56762;49.494;11.768;2022-07-23T12:10:28;5.38;;;3.88;;
69542;SDS011;56762;49.494;11.768;2022-07-23T12:12:58;5.20;;;3.65;;
69542;SDS011;56762;49.494;11.768;2022-07-23T12:15:28;5.03;;;3.42;;
69542;SDS011;56762;49.494;11.768;2022-07-23T12:17:59;4.80;;;3.75;;
69542;SDS011;56762;49.494;11.768;2022-07-23T12:20:29;4.00;;;2.90;;
69542;SDS011;56762;49.494;11.768;2022-07-23T12:23:01;5.38;;;2.97;;
69542;SDS011;56762;49.494;11.768;2022-07-23T12:25:32;3.75;;;2.72;;
69542;SDS011;56762;49.494;11.768;2022-07-23T12:28:02;4.43;;;3.05;;
69542;SDS011;56762;49.494;11.768;2022-07-23T12:30:35;4.32;;;3.15;;
69542;SDS011;56762;49.494;11.768;2022-07-23T12:33:06;4.17;;;2.60;;
69542;SDS011;56762;49.494;11.768;2022-07-23T12:35:37;4.68;;;2.60;;
69542;SDS011;56762;49.494;11.768;2022-07-23T12:38:08;3.47;;;2.30;;
69542;SDS011;56762;49.494;11.768;2022-07-23T12:40:37;3.85;;;2.63;;
69542;SDS011;56762;49.494;11.768;2022-07-23T12:43:10;4.18;;;2.63;;
69542;SDS011;56762;49.494;11.768;2022-07-23T12:45:47;3.57;;;2.60;;
69542;SDS011;56762;49.494;11.768;2022-07-23T12:48:26;4.72;;;2.67;;
69542;SDS011;56762;49.494;11.768;2022-07-23T12:50:57;4.90;;;2.85;;
69542;SDS011;56762;49.494;11.768;2022-07-23T12:53:28;3.88;;;2.88;;
69542;SDS011;56762;49.494;11.768;2022-07-23T12:55:59;4.72;;;2.97;;
69542;SDS011;56762;49.494;11.768;2022-07-23T12:58:40;4.30;;;2.60;;
69542;SDS011;56762;49.494;11.768;2022-07-23T13:01:10;4.53;;;3.30;;
69542;SDS011;56762;49.494;11.768;2022-07-23T13:03:55;5.18;;;3.60;;
69542;SDS011;56762;49.494;11.768;2022-07-23T13:06:26;4.65;;;3.22;;
69542;SDS011;56762;49.494;11.768;2022-07-23T13:08:56;4.00;;;2.60;;
69542;SDS011;56762;49.494;11.768;2022-07-23T13:11:24;4.00;;;2.73;;
69542;SDS011;56762;49.494;11.768;2022-07-23T13:13:52;4.53;;;2.75;;
69542;SDS011;56762;49.494;11.768;2022-07-23T13:16:21;3.97;;;3.15;;
69542;SDS011;56762;49.494;11.768;2022-07-23T13:18:49;5.40;;;3.35;;
69542;SDS011;56762;49.494;11.768;2022-07-23T13:21:17;5.95;;;3.30;;
69542;SDS011;56762;49.494;11.768;2022-07-23T13:23:49;4.60;;;2.97;;
69542;SDS011;56762;49.494;11.768;2022-07-23T13:26:17;4.53;;;3.20;;
69542;SDS011;56762;49.494;11.768;2022-07-23T13:28:45;4.07;;;3.00;;
69542;SDS011;56762;49.494;11.768;2022-07-23T13:31:13;4.28;;;3.20;;
69542;SDS011;56762;49.494;11.768;2022-07-23T13:33:41;3.70;;;3.05;;
69542;SDS011;56762;49.494;11.768;2022-07-23T13:36:09;4.47;;;3.20;;
69542;SDS011;56762;49.494;11.768;2022-07-23T13:38:39;4.80;;;3.28;;
69542;SDS011;56762;49.494;11.768;2022-07-23T13:41:08;6.25;;;3.78;;
69542;SDS011;56762;49.494;11.768;2022-07-23T13:43:37;6.10;;;4.20;;
69542;SDS011;56762;49.494;11.768;2022-07-23T13:46:06;4.80;;;3.78;;
69542;SDS011;56762;49.494;11.768;2022-07-23T13:48:34;5.07;;;3.70;;
69542;SDS011;56762;49.494;11.768;2022-07-23T13:51:03;5.35;;;3.55;;
69542;SDS011;56762;49.494;11.768;2022-07-23T13:53:31;4.13;;;3.28;;
69542;SDS011;56762;49.494;11.768;2022-07-23T13:55:59;6.40;;;3.58;;
69542;SDS011;56762;49.494;11.768;2022-07-23T13:58:28;4.75;;;3.47;;
69542;SDS011;56762;49.494;11.768;2022-07-23T14:00:58;4.43;;;3.23;;
69542;SDS011;56762;49.494;11.768;2022-07-23T14:03:26;5.05;;;3.60;;
69542;SDS011;56762;49.494;11.768;2022-07-23T14:05:54;5.40;;;3.88;;
69542;SDS011;56762;49.494;11.768;2022-07-23T14:08:22;6.85;;;3.85;;
69542;SDS011;56762;49.494;11.768;2022-07-23T14:10:51;5.53;;;4.40;;
69542;SDS011;56762;49.494;11.768;2022-07-23T14:13:18;4.80;;;3.63;;
69542;SDS011;56762;49.494;11.768;2022-07-23T14:15:48;4.85;;;3.65;;
69542;SDS011;56762;49.494;11.768;2022-07-23T14:18:21;5.65;;;3.42;;
69542;SDS011;56762;49.494;11.768;2022-07-23T14:20:50;5.47;;;4.25;;
69542;SDS011;56762;49.494;11.768;2022-07-23T14:23:17;5.63;;;4.32;;
69542;SDS011;56762;49.494;11.768;2022-07-23T14:25:45;6.03;;;4.70;;
69542;SDS011;56762;49.494;11.768;2022-07-23T14:28:14;6.35;;;4.38;;
69542;SDS011;56762;49.494;11.768;2022-07-23T14:30:41;7.85;;;4.32;;
69542;SDS011;56762;49.494;11.768;2022-07-23T14:33:11;5.25;;;3.72;;
69542;SDS011;56762;49.494;11.768;2022-07-23T14:35:42;5.95;;;4.80;;
69542;SDS011;56762;49.494;11.768;2022-07-23T14:38:10;5.90;;;4.60;;
69542;SDS011;56762;49.494;11.768;2022-07-23T14:40:39;5.90;;;4.47;;
69542;SDS011;56762;49.494;11.768;2022-07-23T14:43:07;6.55;;;4.78;;
69542;SDS011;56762;49.494;11.768;2022-07-23T14:45:37;6.43;;;4.75;;
69542;SDS011;56762;49.494;11.768;2022-07-23T14:48:05;8.35;;;4.70;;
69542;SDS011;56762;49.494;11.768;2022-07-23T14:50:35;6.23;;;4.53;;
69542;SDS011;56762;49.494;11.768;2022-07-23T14:53:03;6.25;;;5.07;;
69542;SDS011;56762;49.494;11.768;2022-07-23T14:55:33;7.97;;;4.95;;
69542;SDS011;56762;49.494;11.768;2022-07-23T14:58:02;6.45;;;4.50;;
69542;SDS011;56762;49.494;11.768;2022-07-23T15:00:33;6.53;;;4.80;;
69542;SDS011;56762;49.494;11.768;2022-07-23T15:03:01;6.27;;;4.80;;